Carnlough, United Kingdom
Current Conditions -  °F | °C
As of 2:20 AM on Saturday 29 Nov 2014 (Local Time) from EGAA Reporting Station
Broken Clouds Broken Clouds  
Wind Chill: 50°   Ceiling: 1000
Heat Index: 50°   Visibility: 4mi
Dew Point: 50°   Wind: 5mph
Humidity: 100%   Direction: 110°ESE
Pressure: 29.8"   Gusts: NA
Location:  54.99°N, 5.99°W
Report Text: EGAA 290220Z 11004KT 7000 FEW007 BKN010 10/10 Q1009
Loading
Personal Weather Stations






























Interactive Weather Map New forecast layout! Learn more

10-Day Weather Forecast

Advertisements
Track Severe Weather on mobile